createdAt,value
2022-10-01T00:04:59.299Z,7.47
2022-10-01T00:10:05.053Z,7.60
2022-10-01T00:15:13.319Z,7.65
2022-10-01T00:20:18.320Z,7.57
2022-10-01T00:25:25.480Z,7.25
2022-10-01T00:30:29.418Z,7.55
2022-10-01T00:35:33.349Z,7.63
2022-10-01T00:40:38.737Z,7.38
2022-10-01T00:45:42.735Z,6.57
2022-10-01T00:50:49.200Z,7.65
2022-10-01T00:55:56.695Z,7.15
2022-10-01T01:01:00.844Z,6.95
2022-10-01T01:06:08.204Z,6.60
2022-10-01T01:11:19.551Z,6.18
2022-10-01T01:16:28.084Z,6.88
2022-10-01T01:21:33.500Z,8.35
2022-10-01T01:26:47.156Z,6.75
2022-10-01T01:31:53.308Z,7.00
2022-10-01T01:42:07.611Z,7.25
2022-10-01T01:47:13.899Z,7.18
2022-10-01T01:52:18.853Z,7.53
2022-10-01T01:57:22.866Z,6.95
2022-10-01T02:02:30.379Z,6.85
2022-10-01T02:07:46.663Z,7.22
2022-10-01T02:18:05.120Z,6.57
2022-10-01T02:23:11.100Z,6.95
2022-10-01T02:28:18.280Z,6.53
2022-10-01T02:33:26.439Z,7.30
2022-10-01T02:38:30.883Z,7.28
2022-10-01T02:43:42.761Z,6.32
2022-10-01T02:48:48.829Z,6.82
2022-10-01T02:53:56.843Z,6.75
2022-10-01T02:59:00.769Z,7.10
2022-10-01T03:04:06.100Z,6.78
2022-10-01T03:09:10.032Z,6.93
2022-10-01T03:14:13.938Z,6.63
2022-10-01T03:19:19.322Z,6.75
2022-10-01T03:24:23.331Z,6.17
2022-10-01T03:29:27.973Z,6.85
2022-10-01T03:34:33.368Z,7.15
2022-10-01T03:39:37.380Z,7.20
2022-10-01T03:44:41.320Z,7.35
2022-10-01T03:49:46.629Z,7.13
2022-10-01T03:54:50.536Z,7.43
2022-10-01T03:59:54.491Z,10.00
2022-10-01T04:04:59.842Z,9.10
2022-10-01T04:10:03.896Z,9.40
2022-10-01T04:15:08.622Z,11.15
2022-10-01T04:20:13.925Z,8.77
2022-10-01T04:25:18.205Z,15.50
2022-10-01T04:30:22.769Z,15.15
2022-10-01T04:35:28.643Z,15.57
2022-10-01T04:40:33.523Z,10.07
2022-10-01T04:45:37.638Z,13.38
2022-10-01T04:50:43.294Z,14.80
2022-10-01T04:55:47.490Z,15.02
2022-10-01T05:00:51.772Z,13.45
2022-10-01T05:05:57.142Z,10.20
2022-10-01T05:11:01.539Z,7.77
2022-10-01T05:16:05.646Z,7.15
2022-10-01T05:21:11.942Z,7.20
2022-10-01T05:26:15.880Z,7.78
2022-10-01T05:31:19.903Z,7.47
2022-10-01T05:36:25.273Z,6.80
2022-10-01T05:41:29.167Z,6.50
2022-10-01T05:46:33.103Z,6.57
2022-10-01T05:51:38.430Z,5.53
2022-10-01T05:56:42.979Z,6.03
2022-10-01T06:01:47.062Z,6.18
2022-10-01T06:06:52.460Z,6.28
2022-10-01T06:11:56.461Z,6.53
2022-10-01T06:17:00.399Z,6.20
2022-10-01T06:22:05.667Z,5.40
2022-10-01T06:27:10.483Z,5.53
2022-10-01T06:32:19.756Z,8.63
2022-10-01T06:37:25.273Z,7.80
2022-10-01T06:42:29.207Z,5.68
2022-10-01T06:47:33.107Z,6.13
2022-10-01T06:52:50.875Z,6.10
2022-10-01T06:57:58.875Z,5.72
2022-10-01T07:03:03.259Z,7.45
2022-10-01T07:08:08.976Z,6.93
2022-10-01T07:18:18.081Z,11.52
2022-10-01T07:23:24.500Z,8.32
2022-10-01T07:28:28.524Z,6.65
2022-10-01T07:33:32.505Z,5.97
2022-10-01T07:38:37.830Z,4.85
2022-10-01T07:48:47.388Z,5.47
2022-10-01T07:53:52.719Z,4.90
2022-10-01T08:04:00.406Z,5.85
2022-10-01T08:09:07.627Z,6.55
2022-10-01T08:14:11.516Z,7.50
2022-10-01T08:19:15.592Z,5.10
2022-10-01T08:24:21.249Z,5.30
2022-10-01T08:29:25.158Z,4.57
2022-10-01T08:34:29.199Z,5.00
2022-10-01T08:39:35.024Z,5.00
2022-10-01T08:44:43.481Z,4.70
2022-10-01T08:49:51.011Z,5.38
2022-10-01T08:54:58.356Z,6.00
2022-10-01T09:00:07.983Z,5.38
2022-10-01T09:05:22.290Z,5.32
2022-10-01T09:10:45.071Z,5.10
2022-10-01T09:15:52.503Z,5.15
2022-10-01T09:20:58.452Z,4.70
2022-10-01T09:26:03.942Z,4.20
2022-10-01T09:31:13.758Z,4.75
2022-10-01T09:36:19.831Z,4.13
2022-10-01T09:41:25.228Z,5.35
2022-10-01T09:46:30.532Z,4.35
2022-10-01T09:51:40.139Z,6.05
2022-10-01T09:56:49.605Z,4.40
2022-10-01T10:01:56.438Z,4.78
2022-10-01T10:07:02.471Z,5.20
2022-10-01T10:12:08.404Z,4.53
2022-10-01T10:17:16.819Z,4.47
2022-10-01T10:22:25.110Z,4.60
2022-10-01T10:27:31.758Z,5.05
2022-10-01T10:32:35.820Z,4.55
2022-10-01T10:37:46.845Z,5.10
2022-10-01T10:42:53.671Z,3.83
2022-10-01T10:47:58.131Z,4.32
2022-10-01T10:53:13.734Z,5.22
2022-10-01T10:58:19.292Z,5.45
2022-10-01T11:03:26.011Z,3.83
2022-10-01T11:08:30.079Z,4.30
2022-10-01T11:13:52.203Z,9.27
2022-10-01T11:19:05.738Z,4.63
2022-10-01T11:24:21.299Z,4.90
2022-10-01T11:29:36.115Z,3.85
2022-10-01T11:35:04.774Z,5.25
2022-10-01T11:40:15.951Z,4.32
2022-10-01T11:45:24.482Z,4.25
2022-10-01T11:50:30.302Z,4.30
2022-10-01T11:55:53.140Z,3.35
2022-10-01T12:01:06.542Z,4.50
2022-10-01T12:06:14.892Z,3.72
2022-10-01T12:11:21.830Z,3.80
2022-10-01T12:16:32.349Z,3.60
2022-10-01T12:21:39.463Z,4.25
2022-10-01T12:26:48.778Z,3.90
2022-10-01T12:31:58.840Z,4.78
2022-10-01T12:37:10.671Z,3.20
2022-10-01T12:42:31.309Z,3.30
2022-10-01T12:47:44.488Z,4.60
2022-10-01T12:52:55.670Z,3.72
2022-10-01T12:58:05.191Z,4.20
2022-10-01T13:03:50.591Z,4.28
2022-10-01T13:09:03.543Z,4.72
2022-10-01T13:14:08.810Z,2.90
2022-10-01T13:19:17.402Z,3.10
2022-10-01T13:24:27.389Z,2.63
2022-10-01T13:29:45.323Z,3.75
2022-10-01T13:34:49.215Z,5.03
2022-10-01T13:39:54.517Z,3.60
2022-10-01T13:45:00.951Z,4.10
2022-10-01T13:50:07.208Z,4.32
2022-10-01T13:55:26.499Z,4.70
2022-10-01T14:00:30.531Z,4.43
2022-10-01T14:05:38.053Z,5.17
2022-10-01T14:11:04.722Z,3.50
2022-10-01T14:16:08.934Z,3.42
2022-10-01T14:21:28.657Z,4.00
2022-10-01T14:26:38.697Z,3.65
2022-10-01T14:31:52.352Z,4.15
2022-10-01T14:36:56.946Z,4.82
2022-10-01T14:42:16.594Z,4.70
2022-10-01T14:47:22.410Z,4.80
2022-10-01T14:52:28.984Z,5.20
2022-10-01T14:57:36.290Z,4.93
2022-10-01T15:02:46.039Z,4.60
2022-10-01T15:07:50.392Z,5.32
2022-10-01T15:12:56.690Z,5.20
2022-10-01T15:18:00.604Z,5.25
2022-10-01T15:23:06.517Z,5.88
2022-10-01T15:28:16.957Z,5.63
2022-10-01T15:33:28.011Z,7.70
2022-10-01T15:38:33.197Z,7.28
2022-10-01T15:43:39.238Z,7.97
2022-10-01T15:48:43.212Z,7.60
2022-10-01T15:53:47.427Z,7.38
2022-10-01T15:58:55.554Z,11.23
2022-10-01T16:04:05.259Z,10.57
2022-10-01T16:09:13.862Z,9.35
2022-10-01T16:14:42.327Z,6.53
2022-10-01T16:19:47.086Z,7.55
2022-10-01T16:24:52.360Z,8.18
2022-10-01T16:30:04.175Z,8.75
2022-10-01T16:35:17.800Z,10.63
2022-10-01T16:40:23.928Z,8.77
2022-10-01T16:45:33.822Z,8.70
2022-10-01T16:50:38.100Z,9.40
2022-10-01T16:55:42.268Z,9.45
2022-10-01T17:00:47.802Z,9.65
2022-10-01T17:05:51.698Z,8.57
2022-10-01T17:10:59.221Z,7.40
2022-10-01T17:16:06.695Z,5.85
2022-10-01T17:21:10.987Z,6.13
2022-10-01T17:26:14.885Z,6.50
2022-10-01T17:31:20.259Z,6.00
2022-10-01T17:36:24.151Z,5.32
2022-10-01T17:41:28.086Z,6.43
2022-10-01T17:46:33.606Z,5.90
2022-10-01T17:56:42.079Z,5.18
2022-10-01T18:01:47.469Z,4.53
2022-10-01T18:06:52.652Z,4.57
2022-10-01T18:11:56.484Z,4.03
2022-10-01T18:17:01.892Z,4.72
2022-10-01T18:22:13.538Z,5.15
2022-10-01T18:27:17.969Z,4.90
2022-10-01T18:32:25.407Z,4.55
2022-10-01T18:37:39.038Z,5.35
2022-10-01T18:42:48.090Z,5.82
2022-10-01T18:48:04.674Z,6.25
2022-10-01T18:53:31.023Z,5.97
2022-10-01T18:59:00.531Z,5.40
2022-10-01T19:04:25.822Z,4.50
2022-10-01T19:09:36.491Z,4.63
2022-10-01T19:14:52.655Z,5.15
2022-10-01T19:20:14.981Z,4.93
2022-10-01T19:25:23.419Z,4.35
2022-10-01T19:30:29.827Z,4.35
2022-10-01T19:35:39.475Z,4.75
2022-10-01T19:40:44.874Z,3.80
2022-10-01T19:45:52.691Z,4.45
2022-10-01T19:51:03.315Z,4.07
2022-10-01T19:56:07.868Z,4.90
2022-10-01T20:01:17.357Z,4.03
2022-10-01T20:06:26.862Z,3.60
2022-10-01T20:11:32.249Z,4.05
2022-10-01T20:16:40.907Z,3.72
2022-10-01T20:21:53.471Z,3.70
2022-10-01T20:27:06.323Z,3.60
2022-10-01T20:32:15.226Z,3.30
2022-10-01T20:37:35.188Z,3.63
2022-10-01T20:42:41.554Z,3.80
2022-10-01T20:47:50.239Z,4.10
2022-10-01T20:53:04.477Z,4.35
2022-10-01T20:58:14.414Z,4.00
2022-10-01T21:03:23.419Z,4.55
2022-10-01T21:08:47.401Z,3.80
2022-10-01T21:13:57.033Z,4.45
2022-10-01T21:19:08.308Z,4.53
2022-10-01T21:24:35.670Z,4.20
2022-10-01T21:29:51.394Z,4.78
2022-10-01T21:35:01.781Z,4.97
2022-10-01T21:40:16.423Z,5.30
2022-10-01T21:45:25.005Z,7.57
2022-10-01T21:50:39.739Z,13.80
2022-10-01T21:55:58.933Z,26.58
2022-10-01T22:01:11.293Z,57.58
2022-10-01T22:06:19.472Z,100.82
2022-10-01T22:11:26.682Z,146.52
2022-10-01T22:16:33.793Z,255.00
2022-10-01T22:21:40.630Z,316.92
2022-10-01T22:26:48.790Z,330.75
2022-10-01T22:31:57.536Z,311.55
2022-10-01T22:37:04.621Z,316.05
2022-10-01T22:42:12.692Z,320.45
2022-10-01T22:47:31.447Z,348.10
2022-10-01T22:52:39.339Z,371.85
2022-10-01T22:58:03.591Z,373.75
2022-10-01T23:03:15.708Z,356.95
2022-10-01T23:08:24.841Z,349.40
2022-10-01T23:13:38.151Z,357.73
2022-10-01T23:18:49.670Z,371.88
2022-10-01T23:24:00.334Z,375.65
2022-10-01T23:29:17.275Z,384.48
2022-10-01T23:34:26.477Z,392.83
2022-10-01T23:39:42.294Z,380.00
2022-10-01T23:44:51.063Z,377.02
2022-10-01T23:49:56.876Z,373.77
2022-10-01T23:55:19.003Z,372.85
